Time;durP1;ratioP1;P1;durP2;ratioP2;P2;SDS_P1;SDS_P2;PMS_P1;PMS_P2;Temp;Humidity;BMP_temperature;BMP_pressure;BME280_temperature;BME280_humidity;BME280_pressure;Samples;Min_cycle;Max_cycle;Signal;HPM_P1;HPM_P2
2024/01/20 00:02:22;;;;;;;31.33;18.48;;;-6.00;99.90;;;;;;4974744;28;20028;-96
2024/01/20 00:04:47;;;;;;;31.27;16.92;;;-6.00;99.90;;;;;;4972937;28;20087;-93
2024/01/20 00:07:13;;;;;;;32.90;15.15;;;-6.10;99.90;;;;;;4974588;28;20050;-93
2024/01/20 00:09:42;;;;;;;32.05;19.52;;;-6.10;99.90;;;;;;5006423;28;20371;-93
2024/01/20 00:12:07;;;;;;;29.27;14.88;;;-6.10;99.90;;;;;;4996659;28;20025;-93
2024/01/20 00:14:42;;;;;;;28.33;15.93;;;-6.20;99.90;;;;;;4994334;28;20098;-94
2024/01/20 00:17:08;;;;;;;29.02;15.57;;;-6.30;99.90;;;;;;4955218;28;20055;-93
2024/01/20 00:19:34;;;;;;;27.13;15.60;;;-6.30;99.90;;;;;;4965262;29;20490;-95
2024/01/20 00:22:00;;;;;;;31.17;15.15;;;-6.40;99.90;;;;;;4969659;28;20026;-93
2024/01/20 00:24:29;;;;;;;25.85;15.63;;;-6.40;99.90;;;;;;4971208;28;20065;-92
2024/01/20 00:26:55;;;;;;;28.48;15.00;;;-6.30;99.90;;;;;;4968625;28;20047;-92
2024/01/20 00:29:23;;;;;;;27.13;14.00;;;-6.40;99.90;;;;;;4970942;28;20027;-94
2024/01/20 00:31:49;;;;;;;;;;;-6.40;99.90;;;;;;4970817;28;20027;-92
2024/01/20 00:34:17;;;;;;;25.85;13.68;;;-6.30;99.90;;;;;;4988605;28;19937;-95
2024/01/20 00:36:43;;;;;;;27.67;14.13;;;-6.30;99.90;;;;;;5005789;28;20030;-94
2024/01/20 00:39:09;;;;;;;26.88;14.73;;;-6.40;99.90;;;;;;4979491;28;20038;-93
2024/01/20 00:41:35;;;;;;;27.33;14.93;;;-6.40;99.90;;;;;;4968525;28;20062;-93
2024/01/20 00:44:04;;;;;;;27.70;15.73;;;-6.50;99.90;;;;;;4971633;28;20027;-93
2024/01/20 00:46:30;;;;;;;31.60;14.45;;;-6.50;99.90;;;;;;4982399;28;20030;-95
2024/01/20 00:48:56;;;;;;;27.63;18.92;;;-6.50;99.90;;;;;;4988281;28;20027;-94
2024/01/20 00:51:22;;;;;;;35.47;17.23;;;-6.50;99.90;;;;;;4969543;28;20047;-93
2024/01/20 00:53:47;;;;;;;30.50;14.65;;;-6.50;99.90;;;;;;4992846;28;20158;-93
2024/01/20 00:56:13;;;;;;;26.65;14.77;;;-6.50;99.90;;;;;;4962592;28;20144;-93
2024/01/20 00:58:39;;;;;;;27.40;15.13;;;-6.40;99.90;;;;;;4977444;28;20094;-94
2024/01/20 01:01:05;;;;;;;28.80;16.08;;;-6.40;99.90;;;;;;4986782;28;20026;-92
2024/01/20 01:03:41;;;;;;;24.15;14.45;;;-6.50;99.90;;;;;;4989731;28;20062;-92
2024/01/20 01:06:10;;;;;;;27.90;14.48;;;-6.40;99.90;;;;;;4986474;28;20023;-93
2024/01/20 01:08:36;;;;;;;29.63;14.30;;;-6.50;99.90;;;;;;4990540;28;20035;-94
2024/01/20 01:11:33;;;;;;;29.20;14.73;;;-6.50;99.90;;;;;;4988546;28;20095;-93
2024/01/20 01:13:58;;;;;;;22.67;13.45;;;-6.70;99.90;;;;;;4966797;28;20036;-95
2024/01/20 01:16:26;;;;;;;31.23;15.40;;;-6.60;99.90;;;;;;4970823;28;20023;-95
2024/01/20 01:18:55;;;;;;;31.42;14.70;;;-6.60;99.90;;;;;;4970227;28;20042;-94
2024/01/20 01:21:24;;;;;;;;;;;-6.60;99.90;;;;;;4970165;28;20116;-93
2024/01/20 01:23:49;;;;;;;30.42;14.77;;;-6.60;99.90;;;;;;4971109;28;19945;-93
2024/01/20 01:26:17;;;;;;;38.83;17.02;;;-6.60;99.90;;;;;;4971458;28;20429;-95
2024/01/20 01:28:56;;;;;;;33.13;17.15;;;-6.60;99.90;;;;;;5064393;23;20055;-94
2024/01/20 01:31:27;;;;;;;30.92;16.95;;;-6.50;99.90;;;;;;4952524;29;20027;-92
2024/01/20 01:33:56;;;;;;;36.08;16.77;;;-6.50;99.90;;;;;;4950929;29;20110;-93
2024/01/20 01:36:22;;;;;;;41.58;15.75;;;-6.50;99.90;;;;;;4970956;28;20089;-94
2024/01/20 01:38:51;;;;;;;32.58;15.48;;;-6.50;99.90;;;;;;4970131;28;20024;-94
2024/01/20 01:41:19;;;;;;;37.25;16.98;;;-6.50;99.90;;;;;;4970886;28;20043;-94
2024/01/20 01:43:47;;;;;;;35.78;17.08;;;-6.40;99.90;;;;;;4969222;28;20034;-95
2024/01/20 01:46:16;;;;;;;29.73;17.33;;;-6.50;99.90;;;;;;4967501;29;20027;-94
2024/01/20 01:48:41;;;;;;;37.63;17.88;;;-6.40;99.90;;;;;;4951879;29;20067;-95
2024/01/20 01:51:07;;;;;;;38.85;18.55;;;-6.40;99.90;;;;;;4965398;28;20031;-92
2024/01/20 01:53:36;;;;;;;33.42;16.67;;;-6.40;99.90;;;;;;4949603;29;20031;-93
2024/01/20 01:56:06;;;;;;;37.28;15.85;;;-6.40;99.90;;;;;;4959845;28;20039;-93
2024/01/20 01:58:44;;;;;;;35.08;16.80;;;-6.40;99.90;;;;;;4969684;28;20038;-95
2024/01/20 02:01:11;;;;;;;41.95;18.27;;;-6.40;99.90;;;;;;4970117;28;20067;-92
2024/01/20 02:03:38;;;;;;;33.40;18.15;;;-6.40;99.90;;;;;;4969054;28;20391;-93
2024/01/20 02:06:16;;;;;;;44.50;19.25;;;-6.40;99.90;;;;;;4969714;28;20026;-94
2024/01/20 02:08:52;;;;;;;45.17;18.45;;;-6.50;99.90;;;;;;4952326;29;20032;-93
2024/01/20 02:11:19;;;;;;;45.33;19.27;;;-6.40;99.90;;;;;;4956870;29;20027;-95
2024/01/20 02:13:45;;;;;;;45.75;18.40;;;-6.50;99.90;;;;;;4950828;29;20027;-94
2024/01/20 02:16:11;;;;;;;59.60;22.08;;;-6.50;99.90;;;;;;4950929;29;20096;-93
2024/01/20 02:18:36;;;;;;;43.42;20.88;;;-6.50;99.90;;;;;;4950186;29;20031;-94
2024/01/20 02:21:05;;;;;;;55.92;21.33;;;-6.60;99.90;;;;;;4950363;29;20032;-94
2024/01/20 02:23:57;;;;;;;43.65;18.15;;;-6.60;99.90;;;;;;4950687;29;20034;-93
2024/01/20 02:26:57;;;;;;;46.38;20.90;;;-6.50;99.90;;;;;;4950021;28;20031;-94
2024/01/20 02:29:23;;;;;;;53.45;20.70;;;-6.50;99.90;;;;;;4944984;29;20117;-92
2024/01/20 02:31:51;;;;;;;52.38;19.52;;;-6.50;99.90;;;;;;4932671;29;20020;-93
2024/01/20 02:34:17;;;;;;;40.47;19.45;;;-6.50;99.90;;;;;;4932131;29;20028;-94
2024/01/20 02:36:43;;;;;;;44.53;19.23;;;-6.50;99.90;;;;;;4960749;28;20078;-96
2024/01/20 02:39:24;;;;;;;41.47;19.02;;;-6.50;99.90;;;;;;4970047;29;20027;-93
2024/01/20 02:41:49;;;;;;;56.13;20.85;;;-6.50;99.90;;;;;;4971313;28;20497;-92
2024/01/20 02:44:15;;;;;;;47.75;20.15;;;-6.40;99.90;;;;;;4971507;29;20031;-92
2024/01/20 02:46:44;;;;;;;46.13;19.75;;;-6.40;99.90;;;;;;4955820;28;20035;-93
2024/01/20 02:49:10;;;;;;;43.88;20.35;;;-6.40;99.90;;;;;;4951544;29;20024;-93
2024/01/20 02:51:36;;;;;;;46.55;22.75;;;-6.40;99.90;;;;;;4954461;29;20075;-94
2024/01/20 02:54:02;;;;;;;49.78;21.90;;;-6.40;99.90;;;;;;4956674;28;20031;-94
2024/01/20 02:56:28;;;;;;;45.35;20.30;;;-6.40;99.90;;;;;;4954701;29;20027;-92
2024/01/20 02:59:00;;;;;;;44.67;23.15;;;-6.50;99.90;;;;;;4946220;29;20023;-94
2024/01/20 03:01:27;;;;;;;38.22;18.73;;;-6.40;99.90;;;;;;4964642;28;20103;-93
2024/01/20 03:03:56;;;;;;;46.47;21.63;;;-6.50;99.90;;;;;;4973187;29;20054;-94
2024/01/20 03:06:25;;;;;;;48.63;20.17;;;-6.50;99.90;;;;;;4938253;29;20043;-92
2024/01/20 03:08:51;;;;;;;50.67;20.02;;;-6.50;99.90;;;;;;4945620;29;20032;-94
2024/01/20 03:11:17;;;;;;;42.70;20.05;;;-6.50;99.90;;;;;;4954835;29;20028;-93
2024/01/20 03:13:46;;;;;;;44.65;20.42;;;-6.50;99.90;;;;;;4983514;28;20063;-94
2024/01/20 03:16:12;;;;;;;52.60;22.98;;;-6.50;99.90;;;;;;4956792;28;20091;-92
2024/01/20 03:19:11;;;;;;;53.15;21.88;;;-6.50;99.90;;;;;;4962426;29;20091;-94
2024/01/20 03:21:49;;;;;;;51.67;24.20;;;-6.50;99.90;;;;;;4966825;28;20042;-93
2024/01/20 03:24:32;;;;;;;58.05;22.45;;;-6.60;99.90;;;;;;4975526;29;20562;-95
2024/01/20 03:26:58;;;;;;;45.08;21.75;;;-6.70;99.90;;;;;;4959379;29;20035;-95
2024/01/20 03:29:24;;;;;;;48.58;20.80;;;-6.80;99.90;;;;;;4973676;28;20039;-95
2024/01/20 03:31:51;;;;;;;46.38;22.10;;;-6.80;99.90;;;;;;4957184;29;20027;-94
2024/01/20 03:34:18;;;;;;;50.83;22.02;;;-6.80;99.90;;;;;;4975163;28;20011;-94
2024/01/20 03:36:50;;;;;;;53.17;22.27;;;-6.90;99.90;;;;;;4974873;28;20087;-94
2024/01/20 03:39:16;;;;;;;78.07;26.13;;;-6.90;99.90;;;;;;4971745;28;20038;-93
2024/01/20 03:41:48;;;;;;;49.95;22.20;;;-7.00;99.90;;;;;;4955282;29;20108;-94
2024/01/20 03:44:17;;;;;;;45.80;19.75;;;-7.00;99.90;;;;;;4954669;29;20023;-94
2024/01/20 03:46:46;;;;;;;53.35;20.80;;;-7.00;99.90;;;;;;4956605;29;20031;-94
2024/01/20 03:49:12;;;;;;;57.05;22.52;;;-7.10;99.90;;;;;;4959120;29;20092;-93
2024/01/20 03:51:45;;;;;;;51.95;21.58;;;-7.10;99.90;;;;;;4971094;28;20039;-95
2024/01/20 03:54:14;;;;;;;36.67;18.40;;;-7.10;99.90;;;;;;4953607;29;20039;-93
2024/01/20 03:57:17;;;;;;;48.90;21.33;;;-7.00;99.90;;;;;;4958883;29;20035;-93
2024/01/20 03:59:47;;;;;;;52.22;19.92;;;-7.10;99.90;;;;;;4935829;29;20028;-93
2024/01/20 04:02:14;;;;;;;45.08;21.48;;;-7.10;99.90;;;;;;4935463;29;20052;-93
2024/01/20 04:05:39;;;;;;;42.65;18.38;;;-7.20;99.90;;;;;;4948348;29;20031;-94
2024/01/20 04:08:07;;;;;;;43.40;20.50;;;-7.20;99.90;;;;;;4973259;29;20034;-92
2024/01/20 04:10:40;;;;;;;46.75;21.38;;;-7.20;99.90;;;;;;4972528;28;20031;-94
2024/01/20 04:13:13;;;;;;;49.10;18.38;;;-7.10;99.90;;;;;;4959906;29;20032;-94
2024/01/20 04:15:59;;;;;;;52.10;21.08;;;-7.20;99.90;;;;;;4969931;29;20031;-95
2024/01/20 04:18:34;;;;;;;58.80;23.65;;;-7.30;99.90;;;;;;4972380;29;20027;-92
2024/01/20 04:21:14;;;;;;;45.05;20.50;;;-7.30;99.90;;;;;;4987452;28;20068;-93
2024/01/20 04:23:44;;;;;;;54.58;19.98;;;-7.30;99.90;;;;;;4954850;29;20027;-93
2024/01/20 04:26:21;;;;;;;47.33;18.85;;;-7.40;99.90;;;;;;4955084;29;20083;-92
2024/01/20 04:28:48;;;;;;;36.45;16.95;;;-7.30;99.90;;;;;;4956004;29;20031;-94
2024/01/20 04:31:29;;;;;;;39.10;18.60;;;-7.30;99.90;;;;;;4970290;28;20087;-94
2024/01/20 04:33:57;;;;;;;49.30;22.60;;;-7.30;99.90;;;;;;4953415;29;20027;-93
2024/01/20 04:36:26;;;;;;;51.97;21.48;;;-7.40;99.90;;;;;;4954382;29;20051;-94
2024/01/20 04:39:10;;;;;;;50.63;19.63;;;-7.30;99.90;;;;;;4952210;29;20028;-94
2024/01/20 04:41:43;;;;;;;43.17;19.58;;;-7.30;99.90;;;;;;4953566;29;20028;-93
2024/01/20 04:44:22;;;;;;;44.47;19.70;;;-7.40;99.90;;;;;;4952243;29;20063;-94
2024/01/20 04:46:54;;;;;;;46.10;18.50;;;-7.50;99.90;;;;;;4961946;29;20011;-95
2024/01/20 04:49:21;;;;;;;46.72;18.23;;;-7.60;99.90;;;;;;4977332;28;20019;-94
2024/01/20 04:52:07;;;;;;;;;;;;;;;;;;;;;
2024/01/20 04:54:38;;;;;;;56.95;22.20;;;-7.70;99.90;;;;;;4973682;29;20070;-94
2024/01/20 04:57:09;;;;;;;42.13;20.05;;;-7.60;99.90;;;;;;4974839;28;20035;-94
2024/01/20 04:59:41;;;;;;;52.28;21.27;;;-7.70;99.90;;;;;;4979825;28;20082;-94
2024/01/20 05:02:23;;;;;;;58.70;23.25;;;-7.60;99.90;;;;;;5234823;23;20162;-94
2024/01/20 05:04:49;;;;;;;61.97;24.42;;;-7.60;99.90;;;;;;5001223;28;20035;-94
2024/01/20 05:07:18;;;;;;;37.55;20.17;;;-7.60;99.90;;;;;;4971850;28;20031;-94
2024/01/20 05:09:55;;;;;;;61.38;22.40;;;-7.50;99.90;;;;;;5011669;28;20034;-93
2024/01/20 05:12:32;;;;;;;64.25;23.73;;;-7.50;99.90;;;;;;5007362;28;20041;-93
2024/01/20 05:15:02;;;;;;;55.63;21.88;;;-7.50;99.90;;;;;;5011528;28;20382;-92
2024/01/20 05:17:37;;;;;;;63.72;21.05;;;-7.40;99.90;;;;;;4974104;28;20038;-94
2024/01/20 05:20:14;;;;;;;60.30;18.00;;;-7.30;99.90;;;;;;4992240;28;20041;-95
2024/01/20 05:22:42;;;;;;;49.17;15.98;;;-7.30;99.90;;;;;;4991725;28;20030;-94
2024/01/20 05:25:12;;;;;;;84.03;22.77;;;-7.20;99.90;;;;;;4991900;28;20023;-93
2024/01/20 05:28:04;;;;;;;51.00;16.83;;;-7.20;99.90;;;;;;4991910;28;20057;-94
2024/01/20 05:30:37;;;;;;;71.88;19.85;;;-7.20;99.90;;;;;;4999203;28;20019;-93
2024/01/20 05:33:11;;;;;;;56.75;23.35;;;-7.30;99.90;;;;;;5013201;28;20034;-93
2024/01/20 05:35:43;;;;;;;48.20;18.77;;;-7.20;99.90;;;;;;5028672;28;20030;-94
2024/01/20 05:38:15;;;;;;;65.88;22.35;;;-7.10;99.90;;;;;;4993364;28;20029;-95
2024/01/20 05:40:47;;;;;;;51.75;18.08;;;-7.20;99.90;;;;;;5013632;28;20052;-94
2024/01/20 05:43:27;;;;;;;45.15;19.27;;;-7.20;99.90;;;;;;5017530;28;20034;-93
2024/01/20 05:45:53;;;;;;;50.55;19.17;;;-7.40;99.90;;;;;;5011683;28;20030;-93
2024/01/20 05:48:24;;;;;;;47.75;18.70;;;-7.40;99.90;;;;;;4995523;28;20082;-92
2024/01/20 05:53:33;;;;;;;39.75;17.02;;;-7.50;99.90;;;;;;5190635;23;20058;-93
2024/01/20 05:56:12;;;;;;;44.95;18.95;;;-7.60;99.90;;;;;;5010087;28;20095;-92
2024/01/20 05:58:58;;;;;;;40.38;17.40;;;-7.50;99.90;;;;;;4981767;28;20042;-94
2024/01/20 06:01:58;;;;;;;45.92;17.38;;;-7.50;99.90;;;;;;4990508;28;20031;-93
2024/01/20 06:04:59;;;;;;;34.95;19.17;;;-7.50;99.90;;;;;;4994348;28;20019;-94
2024/01/20 06:07:33;;;;;;;32.35;16.25;;;-7.60;99.90;;;;;;4989583;28;20050;-95
2024/01/20 06:09:59;;;;;;;43.42;18.10;;;-7.60;99.90;;;;;;4974248;28;20090;-93
2024/01/20 06:12:30;;;;;;;56.10;19.02;;;-7.70;99.90;;;;;;4975100;28;20099;-93
2024/01/20 06:15:11;;;;;;;43.35;18.50;;;-7.80;99.90;;;;;;4974245;28;20636;-95
2024/01/20 06:17:38;;;;;;;51.15;18.08;;;-7.80;99.90;;;;;;4974078;29;20031;-93
2024/01/20 06:20:15;;;;;;;49.92;19.02;;;-7.90;99.90;;;;;;4974906;28;20082;-92
2024/01/20 06:23:19;;;;;;;50.83;20.73;;;-7.80;99.90;;;;;;4977402;28;20023;-93
2024/01/20 06:25:55;;;;;;;47.10;18.10;;;-7.70;99.90;;;;;;4976679;28;20007;-93
2024/01/20 06:28:27;;;;;;;38.22;19.45;;;-7.80;99.90;;;;;;4972274;28;20045;-92
2024/01/20 06:31:00;;;;;;;39.50;17.83;;;-7.70;99.90;;;;;;4975074;29;20031;-92
2024/01/20 06:33:27;;;;;;;39.25;16.48;;;-7.80;99.90;;;;;;4987239;28;20050;-93
2024/01/20 06:36:15;;;;;;;46.60;19.05;;;-7.70;99.90;;;;;;4993130;28;20022;-94
2024/01/20 06:38:57;;;;;;;40.80;20.67;;;-7.70;99.90;;;;;;4969350;29;20067;-93
2024/01/20 06:41:38;;;;;;;38.45;19.13;;;-7.70;99.90;;;;;;4954567;29;20479;-93
2024/01/20 06:44:35;;;;;;;;;;;-7.80;99.90;;;;;;4992630;28;20066;-93
2024/01/20 06:47:12;;;;;;;35.88;15.75;;;-7.80;99.90;;;;;;4997062;28;19906;-95
2024/01/20 06:49:55;;;;;;;48.35;21.35;;;-7.80;99.90;;;;;;4984848;28;20529;-94
2024/01/20 06:52:37;;;;;;;45.45;19.95;;;-7.80;99.90;;;;;;4981178;28;20053;-93
2024/01/20 06:55:06;;;;;;;;;;;-7.70;99.90;;;;;;5015702;28;20065;-94
2024/01/20 06:57:54;;;;;;;43.72;17.83;;;-7.80;99.90;;;;;;5012331;28;19968;-93
2024/01/20 07:00:28;;;;;;;41.45;20.88;;;-7.90;99.90;;;;;;5002710;28;20043;-93
2024/01/20 07:02:54;;;;;;;42.63;18.73;;;-7.90;99.90;;;;;;4999267;28;20043;-94
2024/01/20 07:05:45;;;;;;;29.55;15.40;;;-8.00;99.90;;;;;;4961332;28;20039;-93
2024/01/20 07:08:16;;;;;;;37.10;17.48;;;-8.00;99.90;;;;;;4978193;28;20035;-93
2024/01/20 07:13:20;;;;;;;36.90;18.55;;;-8.10;99.90;;;;;;4966290;28;20047;-95
2024/01/20 07:19:42;;;;;;;43.00;19.75;;;-8.10;99.90;;;;;;4959868;29;20100;-93
2024/01/20 07:22:11;;;;;;;36.97;16.83;;;-8.10;99.90;;;;;;4990616;23;20058;-94
2024/01/20 07:24:52;;;;;;;33.65;15.25;;;-8.00;99.90;;;;;;4993755;28;20030;-94
2024/01/20 07:27:18;;;;;;;40.05;18.10;;;-7.90;99.90;;;;;;4994565;28;20018;-94
2024/01/20 07:29:45;;;;;;;35.58;19.42;;;-7.90;99.90;;;;;;4992591;28;20023;-93
2024/01/20 07:34:47;;;;;;;55.22;28.80;;;-8.00;99.90;;;;;;3864667;23;20065;-93
2024/01/20 07:37:23;;;;;;;;;;;;;;;;;;;;;
2024/01/20 07:39:49;;;;;;;34.42;19.70;;;-7.80;99.90;;;;;;4966391;28;20087;-94
2024/01/20 07:43:09;;;;;;;;;;;;;;;;;;;;;
2024/01/20 07:46:12;;;;;;;32.47;17.13;;;-7.80;99.90;;;;;;4943228;28;20098;-94
2024/01/20 07:49:17;;;;;;;34.90;16.88;;;-7.80;99.90;;;;;;4938270;28;20373;-94
2024/01/20 07:51:50;;;;;;;29.60;16.75;;;-7.80;99.90;;;;;;4939431;29;20050;-93
2024/01/20 07:54:22;;;;;;;38.70;18.35;;;-7.80;99.90;;;;;;4968044;28;20089;-94
2024/01/20 07:56:48;;;;;;;45.78;21.58;;;-7.70;99.90;;;;;;5027814;23;20047;-92
2024/01/20 07:59:14;;;;;;;38.42;21.70;;;-7.80;99.90;;;;;;4971520;28;20094;-94
2024/01/20 08:01:40;;;;;;;48.65;18.73;;;-7.70;99.90;;;;;;4970932;28;20023;-94
2024/01/20 08:04:23;;;;;;;40.72;20.92;;;-7.60;99.90;;;;;;4972557;28;20038;-93
2024/01/20 08:06:52;;;;;;;54.90;22.50;;;-7.60;99.90;;;;;;4980077;28;20027;-92
2024/01/20 08:09:24;;;;;;;48.15;22.98;;;-7.40;99.90;;;;;;4970442;28;20028;-94
2024/01/20 08:11:55;;;;;;;57.85;27.85;;;-7.30;99.90;;;;;;4986669;28;20023;-93
2024/01/20 08:14:23;;;;;;;53.78;22.23;;;-7.20;99.90;;;;;;4990347;28;20474;-93
2024/01/20 08:16:49;;;;;;;52.63;21.98;;;-7.10;99.90;;;;;;4989881;28;20078;-95
2024/01/20 08:19:18;;;;;;;69.95;21.85;;;-7.00;99.90;;;;;;4991367;28;20086;-94
2024/01/20 08:22:04;;;;;;;56.65;22.08;;;-6.90;99.90;;;;;;4983229;28;20099;-92
2024/01/20 08:24:45;;;;;;;74.88;30.02;;;-6.80;99.90;;;;;;4985023;28;20031;-94
2024/01/20 08:27:11;;;;;;;78.97;33.33;;;-6.70;99.90;;;;;;4983887;28;20031;-94
2024/01/20 08:29:40;;;;;;;63.05;31.05;;;-6.60;99.90;;;;;;4985194;28;20054;-94
2024/01/20 08:32:09;;;;;;;;;;;-6.50;99.90;;;;;;4986541;28;20490;-93
2024/01/20 08:34:35;;;;;;;53.80;22.17;;;-6.40;99.90;;;;;;4987137;28;19934;-93
2024/01/20 08:40:26;;;;;;;56.35;23.90;;;-6.20;99.90;;;;;;4972890;28;20092;-92
2024/01/20 08:43:11;;;;;;;59.38;24.45;;;-6.20;99.90;;;;;;4973127;28;20035;-94
2024/01/20 08:45:40;;;;;;;50.40;20.90;;;-6.20;99.90;;;;;;4973876;28;20038;-93
2024/01/20 08:48:13;;;;;;;64.35;27.48;;;-6.10;99.90;;;;;;4991432;28;20026;-92
2024/01/20 08:50:46;;;;;;;46.60;25.70;;;-6.10;99.90;;;;;;4969669;28;20027;-93
2024/01/20 08:53:20;;;;;;;42.13;23.55;;;-6.10;99.90;;;;;;4993288;28;20055;-92
2024/01/20 08:55:46;;;;;;;42.20;21.95;;;-6.00;99.90;;;;;;4978953;28;20011;-92
2024/01/20 08:58:22;;;;;;;46.80;21.85;;;-5.90;99.90;;;;;;4972615;28;20024;-94
2024/01/20 09:00:49;;;;;;;45.65;22.50;;;-6.00;99.90;;;;;;4974626;28;20031;-93
2024/01/20 09:03:19;;;;;;;43.38;20.92;;;-5.80;99.90;;;;;;4990380;28;20126;-93
2024/01/20 09:05:48;;;;;;;37.42;21.70;;;-5.80;99.90;;;;;;4971399;28;20038;-93
2024/01/20 09:08:14;;;;;;;;;;;-5.70;99.90;;;;;;5013368;28;20072;-94
2024/01/20 09:10:40;;;;;;;44.15;21.08;;;-5.70;99.90;;;;;;5010496;28;19928;-92
2024/01/20 09:13:09;;;;;;;43.47;19.63;;;-5.60;99.90;;;;;;4966906;28;20091;-94
2024/01/20 09:15:46;;;;;;;38.65;20.58;;;-5.50;99.90;;;;;;4976041;28;20012;-94
2024/01/20 09:18:16;;;;;;;47.58;22.23;;;-5.50;99.90;;;;;;4974273;28;20030;-94
2024/01/20 09:20:46;;;;;;;48.33;22.35;;;-5.50;99.90;;;;;;5007570;28;20023;-93
2024/01/20 09:23:14;;;;;;;35.38;18.77;;;-5.40;99.90;;;;;;4979405;28;20047;-93
2024/01/20 09:25:47;;;;;;;35.92;19.73;;;-5.40;99.90;;;;;;5022416;23;20059;-93
2024/01/20 09:28:29;;;;;;;50.95;21.52;;;-5.40;99.90;;;;;;4970763;28;20029;-94
2024/01/20 09:31:01;;;;;;;47.85;23.23;;;-5.30;99.90;;;;;;4962948;28;20062;-92
2024/01/20 09:33:27;;;;;;;37.28;20.88;;;-5.20;99.90;;;;;;4963233;28;20031;-93
2024/01/20 09:35:53;;;;;;;42.58;20.67;;;-5.10;99.90;;;;;;4960803;28;20103;-93
2024/01/20 09:38:21;;;;;;;45.85;20.95;;;-5.10;99.90;;;;;;4958354;28;20027;-93
2024/01/20 09:40:47;;;;;;;;;;;-5.00;99.90;;;;;;4980199;28;20022;-92
2024/01/20 09:43:31;;;;;;;37.33;20.98;;;-5.00;99.90;;;;;;4964833;28;19918;-95
2024/01/20 09:46:18;;;;;;;34.13;17.55;;;-4.90;99.90;;;;;;4968200;28;20383;-94
2024/01/20 09:48:59;;;;;;;54.22;24.25;;;-4.80;99.90;;;;;;4972783;28;20027;-93
2024/01/20 09:51:52;;;;;;;41.45;23.20;;;-4.80;99.90;;;;;;4959184;28;20028;-93
2024/01/20 09:54:46;;;;;;;52.55;25.80;;;-4.70;99.90;;;;;;4963820;28;20054;-93
2024/01/20 09:57:21;;;;;;;45.17;22.55;;;-4.50;99.90;;;;;;4958262;28;20035;-93
2024/01/20 10:00:42;;;;;;;46.70;21.98;;;-4.40;99.90;;;;;;4990427;28;20042;-93
2024/01/20 10:03:25;;;;;;;;;;;;;;;;;;;;;
2024/01/20 10:05:57;;;;;;;43.83;21.70;;;-4.10;99.90;;;;;;4888437;29;20072;-92
2024/01/20 10:09:12;;;;;;;41.28;22.48;;;-4.10;99.90;;;;;;4888769;29;20024;-95
2024/01/20 10:12:31;;;;;;;;;;;;;;;;;;;;;
2024/01/20 10:15:13;;;;;;;35.30;18.23;;;-3.50;99.90;;;;;;4880563;29;20583;-92
2024/01/20 10:21:22;;;;;;;46.03;23.25;;;-3.00;99.90;;;;;;4961685;28;20043;-93
2024/01/20 10:27:30;;;;;;;37.63;19.83;;;-2.70;99.90;;;;;;4988830;23;20054;-94
2024/01/20 10:29:56;;;;;;;44.30;21.38;;;-2.40;99.80;;;;;;4984405;28;20023;-93
2024/01/20 10:32:22;;;;;;;41.83;23.45;;;-2.20;98.40;;;;;;4997486;28;20051;-92
2024/01/20 10:34:50;;;;;;;39.45;24.73;;;-2.20;98.00;;;;;;4995746;28;20030;-93
2024/01/20 10:37:26;;;;;;;43.92;23.23;;;-2.00;97.50;;;;;;4991353;28;20035;-92
2024/01/20 10:39:53;;;;;;;46.90;23.75;;;-2.00;96.60;;;;;;4983551;28;20083;-92
2024/01/20 10:42:21;;;;;;;45.53;23.40;;;-1.80;96.40;;;;;;4969127;28;20026;-95
2024/01/20 10:45:09;;;;;;;44.83;24.42;;;-1.70;96.00;;;;;;4979595;28;20032;-94
2024/01/20 10:47:36;;;;;;;48.67;26.90;;;-1.70;96.70;;;;;;4980938;28;20074;-93
2024/01/20 10:50:06;;;;;;;41.80;25.45;;;-1.60;98.30;;;;;;4985724;28;20054;-95
2024/01/20 10:52:36;;;;;;;54.08;28.55;;;-1.30;98.60;;;;;;4974300;28;20023;-94
2024/01/20 10:55:05;;;;;;;54.22;26.77;;;-1.10;98.00;;;;;;4966317;28;20027;-93
2024/01/20 10:57:31;;;;;;;48.88;25.80;;;-0.80;96.50;;;;;;4999826;28;20125;-95
2024/01/20 10:59:59;;;;;;;50.67;27.25;;;-0.70;95.70;;;;;;4987320;28;20065;-93
2024/01/20 11:02:26;;;;;;;47.63;24.60;;;-0.30;95.10;;;;;;4983088;28;20027;-94
2024/01/20 11:04:52;;;;;;;49.30;24.98;;;-0.20;92.20;;;;;;4966587;28;20023;-94
2024/01/20 11:07:27;;;;;;;42.38;27.45;;;0.00;89.30;;;;;;4968215;28;20030;-93
2024/01/20 11:09:57;;;;;;;45.58;23.55;;;0.00;88.60;;;;;;4966989;28;20035;-96
2024/01/20 11:12:24;;;;;;;61.92;36.03;;;0.00;87.40;;;;;;4947589;29;20039;-94
2024/01/20 11:14:54;;;;;;;45.50;26.95;;;0.10;88.90;;;;;;4963201;28;20052;-92
2024/01/20 11:17:21;;;;;;;44.03;25.77;;;0.40;88.10;;;;;;4952721;29;20031;-93
2024/01/20 11:19:47;;;;;;;47.28;27.95;;;0.80;87.30;;;;;;4965430;28;20120;-94
2024/01/20 11:22:32;;;;;;;46.70;26.38;;;1.00;85.30;;;;;;4970387;28;20038;-95
2024/01/20 11:25:05;;;;;;;42.72;24.38;;;0.90;84.50;;;;;;4989317;28;20030;-95
2024/01/20 11:27:43;;;;;;;44.08;23.92;;;1.10;83.80;;;;;;4968018;28;20062;-93
2024/01/20 11:30:09;;;;;;;44.45;25.60;;;1.10;84.10;;;;;;4969044;28;20038;-92
2024/01/20 11:32:38;;;;;;;40.03;26.13;;;1.20;86.10;;;;;;4973095;28;20051;-94
2024/01/20 11:35:09;;;;;;;49.75;26.50;;;1.30;86.00;;;;;;4988264;28;20024;-96
2024/01/20 11:37:38;;;;;;;41.78;24.95;;;1.60;84.20;;;;;;4991419;28;20054;-93
2024/01/20 11:40:11;;;;;;;40.05;23.45;;;1.80;80.60;;;;;;4993195;28;20029;-95
2024/01/20 11:42:38;;;;;;;40.40;22.73;;;2.10;79.40;;;;;;4987410;28;20027;-95
2024/01/20 11:45:06;;;;;;;48.58;27.50;;;2.20;79.20;;;;;;4984893;28;20035;-94
2024/01/20 11:47:32;;;;;;;45.28;25.83;;;2.00;78.20;;;;;;4993175;28;20023;-92
2024/01/20 11:49:59;;;;;;;45.03;24.70;;;1.70;80.30;;;;;;4998849;28;20026;-90
2024/01/20 11:52:25;;;;;;;39.92;23.40;;;1.50;80.50;;;;;;4999878;28;20007;-94
2024/01/20 11:54:51;;;;;;;44.70;25.60;;;1.80;82.20;;;;;;4998822;28;20011;-96
2024/01/20 11:57:29;;;;;;;41.97;24.80;;;2.10;80.00;;;;;;4983734;28;20027;-95
2024/01/20 11:59:57;;;;;;;49.05;26.05;;;2.00;79.30;;;;;;4979869;28;20016;-96
2024/01/20 12:02:27;;;;;;;48.13;25.20;;;2.40;79.50;;;;;;4983641;28;20066;-95
2024/01/20 12:04:54;;;;;;;43.38;26.55;;;2.60;77.50;;;;;;4999922;28;20026;-95
2024/01/20 12:07:21;;;;;;;43.80;24.48;;;2.40;78.30;;;;;;4990593;28;20015;-94
2024/01/20 12:09:47;;;;;;;41.20;23.83;;;2.40;80.20;;;;;;4979869;28;20030;-95
2024/01/20 12:12:13;;;;;;;39.60;25.05;;;2.40;81.40;;;;;;4979974;28;20015;-95
2024/01/20 12:14:46;;;;;;;43.67;24.75;;;2.80;79.80;;;;;;5011709;28;20059;-96
2024/01/20 12:17:13;;;;;;;44.30;24.73;;;2.50;79.80;;;;;;5005073;28;20041;-95
2024/01/20 12:19:40;;;;;;;43.13;27.25;;;2.50;82.50;;;;;;4998265;28;20033;-94
2024/01/20 12:22:11;;;;;;;45.97;26.63;;;2.80;80.70;;;;;;4996494;28;20064;-94
2024/01/20 12:24:38;;;;;;;40.75;24.63;;;3.40;77.70;;;;;;4996836;28;20065;-94
2024/01/20 12:27:04;;;;;;;48.33;27.17;;;3.70;75.80;;;;;;4990845;28;20098;-93
2024/01/20 12:29:31;;;;;;;43.25;26.40;;;3.60;76.70;;;;;;4989572;28;20058;-94
2024/01/20 12:32:00;;;;;;;43.92;27.25;;;3.50;77.40;;;;;;4992507;28;20023;-95
2024/01/20 12:34:26;;;;;;;42.38;23.92;;;3.80;76.50;;;;;;4983185;28;20028;-95
2024/01/20 12:36:56;;;;;;;48.92;26.55;;;3.40;76.10;;;;;;4976590;28;20055;-95
2024/01/20 12:39:23;;;;;;;47.42;29.75;;;3.10;78.70;;;;;;4996378;28;20034;-95
2024/01/20 12:41:53;;;;;;;47.63;27.00;;;3.10;76.70;;;;;;4987136;28;20070;-96
2024/01/20 12:44:20;;;;;;;51.88;26.92;;;3.50;77.80;;;;;;4990227;28;20029;-95
2024/01/20 12:46:49;;;;;;;55.00;34.08;;;3.50;74.80;;;;;;4998195;28;20023;-94
2024/01/20 12:49:15;;;;;;;57.33;34.08;;;3.40;77.10;;;;;;4987590;28;20023;-95
2024/01/20 12:51:44;;;;;;;48.40;29.40;;;3.40;76.50;;;;;;4987284;28;20027;-95
2024/01/20 12:54:12;;;;;;;44.85;28.95;;;3.60;76.00;;;;;;4990066;28;20102;-96
2024/01/20 12:56:38;;;;;;;45.35;26.75;;;3.80;75.30;;;;;;4973879;28;20027;-94
2024/01/20 12:59:04;;;;;;;49.83;27.23;;;3.80;75.20;;;;;;4990291;28;20030;-94
2024/01/20 13:01:30;;;;;;;44.40;25.58;;;4.10;75.60;;;;;;4990687;28;20150;-96
2024/01/20 13:03:59;;;;;;;49.10;27.27;;;4.00;75.10;;;;;;4983288;28;20027;-96
2024/01/20 13:06:24;;;;;;;48.67;28.10;;;3.70;76.20;;;;;;4975917;28;20088;-95
2024/01/20 13:08:50;;;;;;;48.03;26.35;;;4.00;72.80;;;;;;5004681;28;20016;-93
2024/01/20 13:11:16;;;;;;;46.25;26.13;;;4.20;75.90;;;;;;4991917;28;20113;-96
2024/01/20 13:13:45;;;;;;;51.20;27.17;;;4.10;72.80;;;;;;4988382;28;20027;-94
2024/01/20 13:16:10;;;;;;;49.95;30.83;;;3.90;76.60;;;;;;4989143;28;20105;-94
2024/01/20 13:18:37;;;;;;;50.65;28.13;;;3.80;74.40;;;;;;4975383;28;20046;-94
2024/01/20 13:21:03;;;;;;;57.50;35.83;;;3.60;77.40;;;;;;4970916;28;20038;-95
2024/01/20 13:23:28;;;;;;;52.83;28.25;;;3.50;77.80;;;;;;4972512;28;20027;-94
2024/01/20 13:25:57;;;;;;;53.30;30.58;;;3.50;76.70;;;;;;4975440;28;20111;-95
2024/01/20 13:28:23;;;;;;;50.10;27.65;;;3.50;77.30;;;;;;4978775;28;20057;-94